sensor_id;sensor_type;location;lat;lon;timestamp;temperature;humidity
29413;DHT22;16389;50.126;8.450;2024-03-08T00:01:09;4.60;99.90
29413;DHT22;16389;50.126;8.450;2024-03-08T00:03:35;4.60;99.90
29413;DHT22;16389;50.126;8.450;2024-03-08T00:06:01;4.50;99.90
29413;DHT22;16389;50.126;8.450;2024-03-08T00:08:27;4.50;99.90
29413;DHT22;16389;50.126;8.450;2024-03-08T00:10:53;4.50;99.90
29413;DHT22;16389;50.126;8.450;2024-03-08T00:13:19;4.50;99.90
29413;DHT22;16389;50.126;8.450;2024-03-08T00:15:48;4.40;99.90
29413;DHT22;16389;50.126;8.450;2024-03-08T00:18:13;4.40;99.90
29413;DHT22;16389;50.126;8.450;2024-03-08T00:20:39;4.40;99.90
29413;DHT22;16389;50.126;8.450;2024-03-08T00:23:04;4.40;99.90
29413;DHT22;16389;50.126;8.450;2024-03-08T00:25:30;4.20;99.90
29413;DHT22;16389;50.126;8.450;2024-03-08T00:27:56;4.20;99.90
29413;DHT22;16389;50.126;8.450;2024-03-08T00:30:22;4.10;99.90
29413;DHT22;16389;50.126;8.450;2024-03-08T00:32:49;4.10;99.90
29413;DHT22;16389;50.126;8.450;2024-03-08T00:35:15;4.00;99.90
29413;DHT22;16389;50.126;8.450;2024-03-08T00:37:41;3.90;99.90
29413;DHT22;16389;50.126;8.450;2024-03-08T00:40:12;3.90;99.90
29413;DHT22;16389;50.126;8.450;2024-03-08T00:42:38;3.80;99.90
29413;DHT22;16389;50.126;8.450;2024-03-08T00:45:05;3.80;99.90
29413;DHT22;16389;50.126;8.450;2024-03-08T00:47:31;3.70;99.90
29413;DHT22;16389;50.126;8.450;2024-03-08T00:49:56;3.70;99.90
29413;DHT22;16389;50.126;8.450;2024-03-08T00:52:22;3.70;99.90
29413;DHT22;16389;50.126;8.450;2024-03-08T00:54:49;3.60;99.90
29413;DHT22;16389;50.126;8.450;2024-03-08T00:57:15;3.60;99.90
29413;DHT22;16389;50.126;8.450;2024-03-08T00:59:41;3.50;99.90
29413;DHT22;16389;50.126;8.450;2024-03-08T01:02:07;3.50;99.90
29413;DHT22;16389;50.126;8.450;2024-03-08T01:04:34;3.50;99.90
29413;DHT22;16389;50.126;8.450;2024-03-08T01:07:00;3.40;99.90
29413;DHT22;16389;50.126;8.450;2024-03-08T01:09:26;3.40;99.90
29413;DHT22;16389;50.126;8.450;2024-03-08T01:11:53;3.40;99.90
29413;DHT22;16389;50.126;8.450;2024-03-08T01:14:23;3.40;99.90
29413;DHT22;16389;50.126;8.450;2024-03-08T01:16:49;3.30;99.90
29413;DHT22;16389;50.126;8.450;2024-03-08T01:19:15;3.30;99.90
29413;DHT22;16389;50.126;8.450;2024-03-08T01:21:41;3.30;99.90
29413;DHT22;16389;50.126;8.450;2024-03-08T01:24:06;3.20;99.90
29413;DHT22;16389;50.126;8.450;2024-03-08T01:26:32;3.20;99.90
29413;DHT22;16389;50.126;8.450;2024-03-08T01:29:00;3.20;99.90
29413;DHT22;16389;50.126;8.450;2024-03-08T01:31:25;3.20;99.90
29413;DHT22;16389;50.126;8.450;2024-03-08T01:33:51;3.20;99.90
29413;DHT22;16389;50.126;8.450;2024-03-08T01:36:16;3.20;99.90
29413;DHT22;16389;50.126;8.450;2024-03-08T01:38:44;3.20;99.90
29413;DHT22;16389;50.126;8.450;2024-03-08T01:41:10;3.10;99.90
29413;DHT22;16389;50.126;8.450;2024-03-08T01:43:35;3.10;99.90
29413;DHT22;16389;50.126;8.450;2024-03-08T01:46:01;3.00;99.90
29413;DHT22;16389;50.126;8.450;2024-03-08T01:48:28;3.00;99.90
29413;DHT22;16389;50.126;8.450;2024-03-08T01:50:55;3.00;99.90
29413;DHT22;16389;50.126;8.450;2024-03-08T01:53:24;3.00;99.90
29413;DHT22;16389;50.126;8.450;2024-03-08T01:55:53;2.90;99.90
29413;DHT22;16389;50.126;8.450;2024-03-08T01:58:19;2.90;99.90
29413;DHT22;16389;50.126;8.450;2024-03-08T02:00:48;2.90;99.90
29413;DHT22;16389;50.126;8.450;2024-03-08T02:03:17;2.90;99.90
29413;DHT22;16389;50.126;8.450;2024-03-08T02:05:42;2.90;99.90
29413;DHT22;16389;50.126;8.450;2024-03-08T02:08:09;2.90;99.90
29413;DHT22;16389;50.126;8.450;2024-03-08T02:10:46;2.90;99.90
29413;DHT22;16389;50.126;8.450;2024-03-08T02:13:12;2.80;99.90
29413;DHT22;16389;50.126;8.450;2024-03-08T02:15:57;2.80;99.90
29413;DHT22;16389;50.126;8.450;2024-03-08T02:18:25;2.80;99.90
29413;DHT22;16389;50.126;8.450;2024-03-08T02:20:58;2.70;99.90
29413;DHT22;16389;50.126;8.450;2024-03-08T02:23:25;2.70;99.90
29413;DHT22;16389;50.126;8.450;2024-03-08T02:25:51;2.70;99.90
29413;DHT22;16389;50.126;8.450;2024-03-08T02:28:18;2.70;99.90
29413;DHT22;16389;50.126;8.450;2024-03-08T02:30:45;2.70;99.90
29413;DHT22;16389;50.126;8.450;2024-03-08T02:33:14;2.70;99.90
29413;DHT22;16389;50.126;8.450;2024-03-08T02:35:43;2.70;99.90
29413;DHT22;16389;50.126;8.450;2024-03-08T02:38:17;2.60;99.90
29413;DHT22;16389;50.126;8.450;2024-03-08T02:40:44;2.60;99.90
29413;DHT22;16389;50.126;8.450;2024-03-08T02:43:11;2.60;99.90
29413;DHT22;16389;50.126;8.450;2024-03-08T02:45:37;2.60;99.90
29413;DHT22;16389;50.126;8.450;2024-03-08T02:48:04;2.50;99.90
29413;DHT22;16389;50.126;8.450;2024-03-08T02:50:32;2.50;99.90
29413;DHT22;16389;50.126;8.450;2024-03-08T02:53:06;2.50;99.90
29413;DHT22;16389;50.126;8.450;2024-03-08T02:55:31;2.50;99.90
29413;DHT22;16389;50.126;8.450;2024-03-08T02:57:58;2.50;99.90
29413;DHT22;16389;50.126;8.450;2024-03-08T03:00:24;2.50;99.90
29413;DHT22;16389;50.126;8.450;2024-03-08T03:02:50;2.50;99.90
29413;DHT22;16389;50.126;8.450;2024-03-08T03:05:22;2.50;99.90
29413;DHT22;16389;50.126;8.450;2024-03-08T03:07:48;2.50;99.90
29413;DHT22;16389;50.126;8.450;2024-03-08T03:10:14;2.40;99.90
29413;DHT22;16389;50.126;8.450;2024-03-08T03:12:44;2.40;99.90
29413;DHT22;16389;50.126;8.450;2024-03-08T03:15:11;2.40;99.90
29413;DHT22;16389;50.126;8.450;2024-03-08T03:17:37;2.30;99.90
29413;DHT22;16389;50.126;8.450;2024-03-08T03:20:05;2.40;99.90
29413;DHT22;16389;50.126;8.450;2024-03-08T03:22:36;2.30;99.90
29413;DHT22;16389;50.126;8.450;2024-03-08T03:25:02;2.30;99.90
29413;DHT22;16389;50.126;8.450;2024-03-08T03:27:29;2.30;99.90
29413;DHT22;16389;50.126;8.450;2024-03-08T03:29:56;2.20;99.90
29413;DHT22;16389;50.126;8.450;2024-03-08T03:32:23;2.20;99.90
29413;DHT22;16389;50.126;8.450;2024-03-08T03:34:49;2.20;99.90
29413;DHT22;16389;50.126;8.450;2024-03-08T03:37:21;2.20;99.90
29413;DHT22;16389;50.126;8.450;2024-03-08T03:39:46;2.20;99.90
29413;DHT22;16389;50.126;8.450;2024-03-08T03:42:18;2.10;99.90
29413;DHT22;16389;50.126;8.450;2024-03-08T03:44:47;2.20;99.90
29413;DHT22;16389;50.126;8.450;2024-03-08T03:47:14;2.20;99.90
29413;DHT22;16389;50.126;8.450;2024-03-08T03:49:42;2.20;99.90
29413;DHT22;16389;50.126;8.450;2024-03-08T03:52:09;2.10;99.90
29413;DHT22;16389;50.126;8.450;2024-03-08T03:54:34;2.10;99.90
29413;DHT22;16389;50.126;8.450;2024-03-08T03:57:00;2.10;99.90
29413;DHT22;16389;50.126;8.450;2024-03-08T03:59:26;2.10;99.90
29413;DHT22;16389;50.126;8.450;2024-03-08T04:01:52;2.00;99.90
29413;DHT22;16389;50.126;8.450;2024-03-08T04:04:18;2.00;99.90
29413;DHT22;16389;50.126;8.450;2024-03-08T04:06:44;2.00;99.90
29413;DHT22;16389;50.126;8.450;2024-03-08T04:09:10;2.00;99.90
29413;DHT22;16389;50.126;8.450;2024-03-08T04:11:38;2.00;99.90
29413;DHT22;16389;50.126;8.450;2024-03-08T04:14:03;2.00;99.90
29413;DHT22;16389;50.126;8.450;2024-03-08T04:16:30;1.90;99.90
29413;DHT22;16389;50.126;8.450;2024-03-08T04:18:57;1.90;99.90
29413;DHT22;16389;50.126;8.450;2024-03-08T04:21:22;1.90;99.90
29413;DHT22;16389;50.126;8.450;2024-03-08T04:23:48;1.90;99.90
29413;DHT22;16389;50.126;8.450;2024-03-08T04:26:13;2.00;99.90
29413;DHT22;16389;50.126;8.450;2024-03-08T04:28:39;1.90;99.90
29413;DHT22;16389;50.126;8.450;2024-03-08T04:31:05;1.90;99.90
29413;DHT22;16389;50.126;8.450;2024-03-08T04:33:32;1.90;99.90
29413;DHT22;16389;50.126;8.450;2024-03-08T04:35:58;1.90;99.90
29413;DHT22;16389;50.126;8.450;2024-03-08T04:38:23;1.90;99.90
29413;DHT22;16389;50.126;8.450;2024-03-08T04:40:51;1.90;99.90
29413;DHT22;16389;50.126;8.450;2024-03-08T04:43:17;1.80;99.90
29413;DHT22;16389;50.126;8.450;2024-03-08T04:45:44;1.80;99.90
29413;DHT22;16389;50.126;8.450;2024-03-08T04:48:10;1.80;99.90
29413;DHT22;16389;50.126;8.450;2024-03-08T04:50:36;1.80;99.90
29413;DHT22;16389;50.126;8.450;2024-03-08T04:53:03;1.80;99.90
29413;DHT22;16389;50.126;8.450;2024-03-08T04:55:30;1.70;99.90
29413;DHT22;16389;50.126;8.450;2024-03-08T04:57:55;1.70;99.90
29413;DHT22;16389;50.126;8.450;2024-03-08T05:00:21;1.70;99.90
29413;DHT22;16389;50.126;8.450;2024-03-08T05:02:46;1.70;99.90
29413;DHT22;16389;50.126;8.450;2024-03-08T05:05:12;1.70;99.90
29413;DHT22;16389;50.126;8.450;2024-03-08T05:07:38;1.60;99.90
29413;DHT22;16389;50.126;8.450;2024-03-08T05:10:06;1.60;99.90
29413;DHT22;16389;50.126;8.450;2024-03-08T05:12:32;1.60;99.90
29413;DHT22;16389;50.126;8.450;2024-03-08T05:14:58;1.60;99.90
29413;DHT22;16389;50.126;8.450;2024-03-08T05:17:24;1.60;99.90
29413;DHT22;16389;50.126;8.450;2024-03-08T05:19:50;1.50;99.90
29413;DHT22;16389;50.126;8.450;2024-03-08T05:22:16;1.50;99.90
29413;DHT22;16389;50.126;8.450;2024-03-08T05:24:42;1.50;99.90
29413;DHT22;16389;50.126;8.450;2024-03-08T05:27:08;1.50;99.90
29413;DHT22;16389;50.126;8.450;2024-03-08T05:29:33;1.50;99.90
29413;DHT22;16389;50.126;8.450;2024-03-08T05:31:59;1.50;99.90
29413;DHT22;16389;50.126;8.450;2024-03-08T05:34:24;1.40;99.90
29413;DHT22;16389;50.126;8.450;2024-03-08T05:36:51;1.50;99.90
29413;DHT22;16389;50.126;8.450;2024-03-08T05:39:17;1.50;99.90
29413;DHT22;16389;50.126;8.450;2024-03-08T05:41:44;1.40;99.90
29413;DHT22;16389;50.126;8.450;2024-03-08T05:44:11;1.40;99.90
29413;DHT22;16389;50.126;8.450;2024-03-08T05:46:37;1.40;99.90
29413;DHT22;16389;50.126;8.450;2024-03-08T05:49:07;1.40;99.90
29413;DHT22;16389;50.126;8.450;2024-03-08T05:51:37;1.40;99.90
29413;DHT22;16389;50.126;8.450;2024-03-08T05:54:10;1.40;99.90
29413;DHT22;16389;50.126;8.450;2024-03-08T05:56:37;1.40;99.90
29413;DHT22;16389;50.126;8.450;2024-03-08T05:59:03;1.40;99.90
29413;DHT22;16389;50.126;8.450;2024-03-08T06:01:29;1.40;99.90
29413;DHT22;16389;50.126;8.450;2024-03-08T06:03:55;1.40;99.90
29413;DHT22;16389;50.126;8.450;2024-03-08T06:06:23;1.40;99.90
29413;DHT22;16389;50.126;8.450;2024-03-08T06:08:49;1.50;99.90
29413;DHT22;16389;50.126;8.450;2024-03-08T06:11:15;1.40;99.90
29413;DHT22;16389;50.126;8.450;2024-03-08T06:13:42;1.50;99.90
29413;DHT22;16389;50.126;8.450;2024-03-08T06:16:08;1.50;99.90
29413;DHT22;16389;50.126;8.450;2024-03-08T06:18:34;1.60;99.90
29413;DHT22;16389;50.126;8.450;2024-03-08T06:21:05;1.60;99.90
29413;DHT22;16389;50.126;8.450;2024-03-08T06:23:34;1.60;99.90
29413;DHT22;16389;50.126;8.450;2024-03-08T06:26:09;1.60;99.90
29413;DHT22;16389;50.126;8.450;2024-03-08T06:28:35;1.70;99.90
29413;DHT22;16389;50.126;8.450;2024-03-08T06:31:01;1.80;99.90
29413;DHT22;16389;50.126;8.450;2024-03-08T06:33:28;1.70;99.90
29413;DHT22;16389;50.126;8.450;2024-03-08T06:35:57;1.80;99.90
29413;DHT22;16389;50.126;8.450;2024-03-08T06:38:23;1.90;99.90
29413;DHT22;16389;50.126;8.450;2024-03-08T06:40:49;1.90;99.90
29413;DHT22;16389;50.126;8.450;2024-03-08T06:43:17;1.90;99.90
29413;DHT22;16389;50.126;8.450;2024-03-08T06:45:44;2.00;99.90
29413;DHT22;16389;50.126;8.450;2024-03-08T06:48:19;2.00;99.90
29413;DHT22;16389;50.126;8.450;2024-03-08T06:50:46;2.10;99.90
29413;DHT22;16389;50.126;8.450;2024-03-08T06:53:12;2.30;99.90
29413;DHT22;16389;50.126;8.450;2024-03-08T06:55:39;2.50;99.90
29413;DHT22;16389;50.126;8.450;2024-03-08T06:58:04;2.60;99.90
29413;DHT22;16389;50.126;8.450;2024-03-08T07:00:30;2.80;99.90
29413;DHT22;16389;50.126;8.450;2024-03-08T07:02:56;2.90;99.90
29413;DHT22;16389;50.126;8.450;2024-03-08T07:05:26;3.00;99.90
29413;DHT22;16389;50.126;8.450;2024-03-08T07:07:52;3.20;99.90
29413;DHT22;16389;50.126;8.450;2024-03-08T07:10:18;3.30;99.90
29413;DHT22;16389;50.126;8.450;2024-03-08T07:12:44;3.40;99.90
29413;DHT22;16389;50.126;8.450;2024-03-08T07:15:11;3.60;99.90
29413;DHT22;16389;50.126;8.450;2024-03-08T07:17:39;3.70;99.90
29413;DHT22;16389;50.126;8.450;2024-03-08T07:20:06;3.80;99.90
29413;DHT22;16389;50.126;8.450;2024-03-08T07:22:33;4.00;99.90
29413;DHT22;16389;50.126;8.450;2024-03-08T07:24:58;4.20;99.90
29413;DHT22;16389;50.126;8.450;2024-03-08T07:27:34;4.40;99.90
29413;DHT22;16389;50.126;8.450;2024-03-08T07:30:02;4.50;99.90
29413;DHT22;16389;50.126;8.450;2024-03-08T07:32:28;4.70;99.90
29413;DHT22;16389;50.126;8.450;2024-03-08T07:34:56;4.90;99.90
29413;DHT22;16389;50.126;8.450;2024-03-08T07:37:21;5.00;99.90
29413;DHT22;16389;50.126;8.450;2024-03-08T07:39:47;5.20;99.90
29413;DHT22;16389;50.126;8.450;2024-03-08T07:42:13;5.30;99.90
29413;DHT22;16389;50.126;8.450;2024-03-08T07:44:39;5.30;99.90
29413;DHT22;16389;50.126;8.450;2024-03-08T07:47:04;5.40;99.90
29413;DHT22;16389;50.126;8.450;2024-03-08T07:49:30;5.50;99.90
29413;DHT22;16389;50.126;8.450;2024-03-08T07:51:56;5.60;99.90
29413;DHT22;16389;50.126;8.450;2024-03-08T07:54:23;5.70;99.90
29413;DHT22;16389;50.126;8.450;2024-03-08T07:56:48;5.70;99.90
29413;DHT22;16389;50.126;8.450;2024-03-08T07:59:14;5.80;99.90
29413;DHT22;16389;50.126;8.450;2024-03-08T08:01:40;6.00;99.90
29413;DHT22;16389;50.126;8.450;2024-03-08T08:04:06;6.00;99.90
29413;DHT22;16389;50.126;8.450;2024-03-08T08:06:32;6.10;99.90
29413;DHT22;16389;50.126;8.450;2024-03-08T08:08:58;6.20;99.90
29413;DHT22;16389;50.126;8.450;2024-03-08T08:11:26;6.40;99.90
29413;DHT22;16389;50.126;8.450;2024-03-08T08:13:54;6.50;99.90
29413;DHT22;16389;50.126;8.450;2024-03-08T08:16:23;6.60;99.90
29413;DHT22;16389;50.126;8.450;2024-03-08T08:18:49;6.80;99.90
29413;DHT22;16389;50.126;8.450;2024-03-08T08:21:15;6.90;99.90
29413;DHT22;16389;50.126;8.450;2024-03-08T08:23:41;6.90;99.90
29413;DHT22;16389;50.126;8.450;2024-03-08T08:26:07;6.90;99.90
29413;DHT22;16389;50.126;8.450;2024-03-08T08:28:33;7.00;99.90
29413;DHT22;16389;50.126;8.450;2024-03-08T08:30:58;7.10;99.90
29413;DHT22;16389;50.126;8.450;2024-03-08T08:33:25;7.10;99.90
29413;DHT22;16389;50.126;8.450;2024-03-08T08:35:51;7.10;99.90
29413;DHT22;16389;50.126;8.450;2024-03-08T08:38:19;7.20;99.90
29413;DHT22;16389;50.126;8.450;2024-03-08T08:40:45;7.30;99.90
29413;DHT22;16389;50.126;8.450;2024-03-08T08:43:12;7.50;99.90
29413;DHT22;16389;50.126;8.450;2024-03-08T08:45:38;7.60;99.90
29413;DHT22;16389;50.126;8.450;2024-03-08T08:48:04;7.80;99.90
29413;DHT22;16389;50.126;8.450;2024-03-08T08:50:30;7.90;99.90
29413;DHT22;16389;50.126;8.450;2024-03-08T08:52:56;8.20;99.90
29413;DHT22;16389;50.126;8.450;2024-03-08T08:55:22;8.30;99.90
29413;DHT22;16389;50.126;8.450;2024-03-08T08:57:51;8.50;99.90
29413;DHT22;16389;50.126;8.450;2024-03-08T09:00:21;8.50;99.90
29413;DHT22;16389;50.126;8.450;2024-03-08T09:02:49;8.70;99.90
29413;DHT22;16389;50.126;8.450;2024-03-08T09:05:16;8.90;99.90
29413;DHT22;16389;50.126;8.450;2024-03-08T09:07:44;9.00;99.90
29413;DHT22;16389;50.126;8.450;2024-03-08T09:10:10;9.10;99.90
29413;DHT22;16389;50.126;8.450;2024-03-08T09:12:40;9.10;99.90
29413;DHT22;16389;50.126;8.450;2024-03-08T09:15:06;9.30;99.90
29413;DHT22;16389;50.126;8.450;2024-03-08T09:17:36;9.40;99.90
29413;DHT22;16389;50.126;8.450;2024-03-08T09:20:01;9.60;99.90
29413;DHT22;16389;50.126;8.450;2024-03-08T09:22:29;9.60;99.90
29413;DHT22;16389;50.126;8.450;2024-03-08T09:24:55;9.70;99.90
29413;DHT22;16389;50.126;8.450;2024-03-08T09:27:22;9.90;99.90
29413;DHT22;16389;50.126;8.450;2024-03-08T09:29:48;9.90;99.90
29413;DHT22;16389;50.126;8.450;2024-03-08T09:32:14;9.90;99.90
29413;DHT22;16389;50.126;8.450;2024-03-08T09:34:40;10.10;99.90
29413;DHT22;16389;50.126;8.450;2024-03-08T09:37:05;10.20;99.90
29413;DHT22;16389;50.126;8.450;2024-03-08T09:39:31;10.40;99.90
29413;DHT22;16389;50.126;8.450;2024-03-08T09:41:58;10.70;99.90
29413;DHT22;16389;50.126;8.450;2024-03-08T09:44:24;10.80;99.40
29413;DHT22;16389;50.126;8.450;2024-03-08T09:46:50;10.80;99.30
29413;DHT22;16389;50.126;8.450;2024-03-08T09:49:19;10.70;98.40
29413;DHT22;16389;50.126;8.450;2024-03-08T09:51:45;10.90;97.50
29413;DHT22;16389;50.126;8.450;2024-03-08T09:54:12;11.00;97.80
29413;DHT22;16389;50.126;8.450;2024-03-08T09:56:39;11.30;96.80
29413;DHT22;16389;50.126;8.450;2024-03-08T09:59:06;11.40;96.00
29413;DHT22;16389;50.126;8.450;2024-03-08T10:01:41;11.60;95.40
29413;DHT22;16389;50.126;8.450;2024-03-08T10:04:06;11.60;94.60
29413;DHT22;16389;50.126;8.450;2024-03-08T10:06:32;11.70;94.80
29413;DHT22;16389;50.126;8.450;2024-03-08T10:08:58;12.10;94.30
29413;DHT22;16389;50.126;8.450;2024-03-08T10:11:26;12.20;94.20
29413;DHT22;16389;50.126;8.450;2024-03-08T10:13:52;12.40;93.20
29413;DHT22;16389;50.126;8.450;2024-03-08T10:16:18;12.80;93.60
29413;DHT22;16389;50.126;8.450;2024-03-08T10:18:45;13.00;91.30
29413;DHT22;16389;50.126;8.450;2024-03-08T10:21:11;13.10;91.30
29413;DHT22;16389;50.126;8.450;2024-03-08T10:23:37;13.20;90.70
29413;DHT22;16389;50.126;8.450;2024-03-08T10:26:13;13.50;90.50
29413;DHT22;16389;50.126;8.450;2024-03-08T10:28:47;13.80;89.60
29413;DHT22;16389;50.126;8.450;2024-03-08T10:31:14;13.80;88.20
29413;DHT22;16389;50.126;8.450;2024-03-08T10:33:43;14.10;87.60
29413;DHT22;16389;50.126;8.450;2024-03-08T10:36:10;14.20;85.10
29413;DHT22;16389;50.126;8.450;2024-03-08T10:38:38;14.20;84.50
29413;DHT22;16389;50.126;8.450;2024-03-08T10:41:08;14.30;83.90
29413;DHT22;16389;50.126;8.450;2024-03-08T10:44:10;14.60;83.00
29413;DHT22;16389;50.126;8.450;2024-03-08T10:49:25;15.90;80.30
29413;DHT22;16389;50.126;8.450;2024-03-08T10:51:51;16.50;76.50
29413;DHT22;16389;50.126;8.450;2024-03-08T10:54:19;16.90;72.80
29413;DHT22;16389;50.126;8.450;2024-03-08T10:56:48;17.00;71.50
29413;DHT22;16389;50.126;8.450;2024-03-08T10:59:15;17.50;70.50
29413;DHT22;16389;50.126;8.450;2024-03-08T11:01:42;18.10;68.50
29413;DHT22;16389;50.126;8.450;2024-03-08T11:04:08;18.80;66.80
29413;DHT22;16389;50.126;8.450;2024-03-08T11:09:02;20.10;60.70
29413;DHT22;16389;50.126;8.450;2024-03-08T11:11:31;20.70;58.90
29413;DHT22;16389;50.126;8.450;2024-03-08T11:14:01;21.10;58.30
29413;DHT22;16389;50.126;8.450;2024-03-08T11:19:23;22.40;56.10
29413;DHT22;16389;50.126;8.450;2024-03-08T11:21:57;23.20;53.50
29413;DHT22;16389;50.126;8.450;2024-03-08T11:24:23;23.40;51.30
29413;DHT22;16389;50.126;8.450;2024-03-08T11:26:49;23.10;51.10
29413;DHT22;16389;50.126;8.450;2024-03-08T11:32:11;23.60;49.80
29413;DHT22;16389;50.126;8.450;2024-03-08T11:34:48;24.00;48.50
29413;DHT22;16389;50.126;8.450;2024-03-08T11:37:18;24.80;47.30
29413;DHT22;16389;50.126;8.450;2024-03-08T11:39:48;25.10;46.70
29413;DHT22;16389;50.126;8.450;2024-03-08T11:42:15;25.40;45.10
29413;DHT22;16389;50.126;8.450;2024-03-08T11:44:43;25.40;45.50
29413;DHT22;16389;50.126;8.450;2024-03-08T11:47:10;25.60;44.90
29413;DHT22;16389;50.126;8.450;2024-03-08T11:49:36;25.70;45.30
29413;DHT22;16389;50.126;8.450;2024-03-08T11:52:02;26.50;45.10
29413;DHT22;16389;50.126;8.450;2024-03-08T11:54:28;26.30;43.70
29413;DHT22;16389;50.126;8.450;2024-03-08T11:56:58;26.90;43.50
29413;DHT22;16389;50.126;8.450;2024-03-08T11:59:30;26.90;41.80
29413;DHT22;16389;50.126;8.450;2024-03-08T12:02:01;27.10;42.20
29413;DHT22;16389;50.126;8.450;2024-03-08T12:04:27;27.80;41.60
29413;DHT22;16389;50.126;8.450;2024-03-08T12:06:53;28.10;41.90
29413;DHT22;16389;50.126;8.450;2024-03-08T12:09:18;28.20;40.10
29413;DHT22;16389;50.126;8.450;2024-03-08T12:11:50;27.90;40.00
29413;DHT22;16389;50.126;8.450;2024-03-08T12:14:16;28.50;40.30
29413;DHT22;16389;50.126;8.450;2024-03-08T12:16:42;29.40;39.90
29413;DHT22;16389;50.126;8.450;2024-03-08T12:19:08;30.00;39.10
29413;DHT22;16389;50.126;8.450;2024-03-08T12:21:35;30.10;38.40
29413;DHT22;16389;50.126;8.450;2024-03-08T12:26:28;30.90;37.20
29413;DHT22;16389;50.126;8.450;2024-03-08T12:29:13;31.10;37.10
29413;DHT22;16389;50.126;8.450;2024-03-08T12:31:39;31.10;36.30
29413;DHT22;16389;50.126;8.450;2024-03-08T12:34:05;31.20;36.10
29413;DHT22;16389;50.126;8.450;2024-03-08T12:36:30;31.60;35.70
29413;DHT22;16389;50.126;8.450;2024-03-08T12:38:56;31.30;35.70
29413;DHT22;16389;50.126;8.450;2024-03-08T12:41:22;30.30;36.50
29413;DHT22;16389;50.126;8.450;2024-03-08T12:43:48;28.20;38.00
29413;DHT22;16389;50.126;8.450;2024-03-08T12:46:21;26.00;40.10
29413;DHT22;16389;50.126;8.450;2024-03-08T12:48:51;23.60;42.80
29413;DHT22;16389;50.126;8.450;2024-03-08T12:51:19;21.40;46.40
29413;DHT22;16389;50.126;8.450;2024-03-08T12:53:46;20.10;49.10
29413;DHT22;16389;50.126;8.450;2024-03-08T12:56:13;19.30;51.00
29413;DHT22;16389;50.126;8.450;2024-03-08T12:58:39;18.30;52.50
29413;DHT22;16389;50.126;8.450;2024-03-08T13:01:06;17.50;54.20
29413;DHT22;16389;50.126;8.450;2024-03-08T13:03:33;16.90;55.20
29413;DHT22;16389;50.126;8.450;2024-03-08T13:06:02;16.60;55.90
29413;DHT22;16389;50.126;8.450;2024-03-08T13:08:28;16.30;57.30
29413;DHT22;16389;50.126;8.450;2024-03-08T13:10:55;15.90;58.00
29413;DHT22;16389;50.126;8.450;2024-03-08T13:13:20;15.50;58.50
29413;DHT22;16389;50.126;8.450;2024-03-08T13:15:46;15.10;59.20
29413;DHT22;16389;50.126;8.450;2024-03-08T13:18:11;15.10;60.20
29413;DHT22;16389;50.126;8.450;2024-03-08T13:20:37;14.80;61.00
29413;DHT22;16389;50.126;8.450;2024-03-08T13:23:04;14.50;61.30
29413;DHT22;16389;50.126;8.450;2024-03-08T13:25:30;14.70;62.10
29413;DHT22;16389;50.126;8.450;2024-03-08T13:27:56;15.50;61.00
29413;DHT22;16389;50.126;8.450;2024-03-08T13:30:24;16.70;58.90
29413;DHT22;16389;50.126;8.450;2024-03-08T13:32:52;19.40;54.60
29413;DHT22;16389;50.126;8.450;2024-03-08T13:50:05;21.70;50.90
29413;DHT22;16389;50.126;8.450;2024-03-08T13:52:33;30.40;37.70
29413;DHT22;16389;50.126;8.450;2024-03-08T13:55:00;29.50;37.70
29413;DHT22;16389;50.126;8.450;2024-03-08T13:57:26;29.00;39.00
29413;DHT22;16389;50.126;8.450;2024-03-08T14:02:19;28.80;38.40
29413;DHT22;16389;50.126;8.450;2024-03-08T14:04:44;25.40;41.50
29413;DHT22;16389;50.126;8.450;2024-03-08T14:09:36;22.70;44.60
29413;DHT22;16389;50.126;8.450;2024-03-08T14:12:08;18.90;51.80
29413;DHT22;16389;50.126;8.450;2024-03-08T14:14:34;17.60;54.30
29413;DHT22;16389;50.126;8.450;2024-03-08T14:17:03;16.40;56.10
29413;DHT22;16389;50.126;8.450;2024-03-08T14:19:29;15.70;58.30
29413;DHT22;16389;50.126;8.450;2024-03-08T14:21:59;15.20;60.10
29413;DHT22;16389;50.126;8.450;2024-03-08T14:24:25;14.70;61.70
29413;DHT22;16389;50.126;8.450;2024-03-08T14:26:51;14.20;63.50
29413;DHT22;16389;50.126;8.450;2024-03-08T14:29:17;14.00;63.10
29413;DHT22;16389;50.126;8.450;2024-03-08T14:31:44;13.80;64.70
29413;DHT22;16389;50.126;8.450;2024-03-08T14:34:10;13.60;65.20
29413;DHT22;16389;50.126;8.450;2024-03-08T14:36:36;13.60;65.70
29413;DHT22;16389;50.126;8.450;2024-03-08T14:39:02;13.40;66.00
29413;DHT22;16389;50.126;8.450;2024-03-08T14:41:27;13.40;66.50
29413;DHT22;16389;50.126;8.450;2024-03-08T14:43:53;13.40;66.40
29413;DHT22;16389;50.126;8.450;2024-03-08T14:46:19;13.40;67.00
29413;DHT22;16389;50.126;8.450;2024-03-08T14:48:51;13.30;67.20
29413;DHT22;16389;50.126;8.450;2024-03-08T14:51:20;13.20;67.50
29413;DHT22;16389;50.126;8.450;2024-03-08T14:53:52;13.20;67.90
29413;DHT22;16389;50.126;8.450;2024-03-08T14:56:18;13.10;68.50
29413;DHT22;16389;50.126;8.450;2024-03-08T14:58:47;13.30;68.50
29413;DHT22;16389;50.126;8.450;2024-03-08T15:01:17;13.30;67.50
29413;DHT22;16389;50.126;8.450;2024-03-08T15:03:47;13.40;67.80
29413;DHT22;16389;50.126;8.450;2024-03-08T15:06:14;13.40;67.70
29413;DHT22;16389;50.126;8.450;2024-03-08T15:08:40;13.40;67.50
29413;DHT22;16389;50.126;8.450;2024-03-08T15:11:06;13.30;68.10
29413;DHT22;16389;50.126;8.450;2024-03-08T15:13:32;13.40;68.50
29413;DHT22;16389;50.126;8.450;2024-03-08T15:16:06;13.40;68.00
29413;DHT22;16389;50.126;8.450;2024-03-08T15:18:33;13.70;68.50
29413;DHT22;16389;50.126;8.450;2024-03-08T15:21:04;13.60;67.10
29413;DHT22;16389;50.126;8.450;2024-03-08T15:23:33;13.60;68.60
29413;DHT22;16389;50.126;8.450;2024-03-08T15:25:59;13.70;68.20
29413;DHT22;16389;50.126;8.450;2024-03-08T15:57:57;14.10;66.90
29413;DHT22;16389;50.126;8.450;2024-03-08T16:15:55;21.80;49.80
29413;DHT22;16389;50.126;8.450;2024-03-08T16:28:12;13.00;67.50
29413;DHT22;16389;50.126;8.450;2024-03-08T16:30:43;11.50;73.50
29413;DHT22;16389;50.126;8.450;2024-03-08T16:33:13;11.30;74.50
29413;DHT22;16389;50.126;8.450;2024-03-08T16:35:40;11.20;75.50
29413;DHT22;16389;50.126;8.450;2024-03-08T16:38:09;11.00;74.70
29413;DHT22;16389;50.126;8.450;2024-03-08T16:50:26;10.90;75.30
29413;DHT22;16389;50.126;8.450;2024-03-08T16:52:52;10.30;79.70
29413;DHT22;16389;50.126;8.450;2024-03-08T16:55:18;10.20;80.30
29413;DHT22;16389;50.126;8.450;2024-03-08T16:57:46;10.10;81.70
29413;DHT22;16389;50.126;8.450;2024-03-08T17:00:22;10.00;81.60
29413;DHT22;16389;50.126;8.450;2024-03-08T17:02:53;10.00;81.30
29413;DHT22;16389;50.126;8.450;2024-03-08T17:05:19;9.90;82.50
29413;DHT22;16389;50.126;8.450;2024-03-08T17:07:48;9.70;83.00
29413;DHT22;16389;50.126;8.450;2024-03-08T17:10:24;9.70;83.10
29413;DHT22;16389;50.126;8.450;2024-03-08T17:12:51;9.50;84.40
29413;DHT22;16389;50.126;8.450;2024-03-08T17:15:22;9.40;85.40
29413;DHT22;16389;50.126;8.450;2024-03-08T17:17:52;9.40;86.20